createdAt,value
2018-11-28T00:00:54.022Z,5.41
2018-11-28T00:03:23.678Z,5.43
2018-11-28T00:05:53.979Z,5.43
2018-11-28T00:08:23.245Z,5.46
2018-11-28T00:10:54.286Z,5.46
2018-11-28T00:13:23.911Z,5.48
2018-11-28T00:15:53.608Z,5.50
2018-11-28T00:18:23.097Z,5.53
2018-11-28T00:20:52.517Z,5.54
2018-11-28T00:23:22.226Z,5.56
2018-11-28T00:25:51.620Z,5.58
2018-11-28T00:28:21.943Z,5.60
2018-11-28T00:30:51.376Z,5.63
2018-11-28T00:33:20.795Z,5.67
2018-11-28T00:35:51.240Z,5.69
2018-11-28T00:38:20.815Z,5.73
2018-11-28T00:40:50.186Z,5.76
2018-11-28T00:43:19.629Z,5.75
2018-11-28T00:45:48.926Z,5.74
2018-11-28T00:48:18.474Z,5.77
2018-11-28T00:50:47.956Z,5.78
2018-11-28T00:53:17.504Z,5.78
2018-11-28T00:55:49.398Z,5.76
2018-11-28T00:58:20.564Z,5.75
2018-11-28T01:00:50.718Z,5.76
2018-11-28T01:03:20.297Z,5.75
2018-11-28T01:05:49.859Z,5.76
2018-11-28T01:08:19.346Z,5.78
2018-11-28T01:10:49.918Z,5.77
2018-11-28T01:13:19.292Z,5.79
2018-11-28T01:15:48.588Z,5.80
2018-11-28T01:18:17.963Z,5.83
2018-11-28T01:20:47.237Z,5.86
2018-11-28T01:23:16.699Z,5.87
2018-11-28T01:25:46.961Z,5.89
2018-11-28T01:28:16.399Z,5.93
2018-11-28T01:30:46.481Z,5.94
2018-11-28T01:33:16.344Z,5.93
2018-11-28T01:35:45.992Z,5.95
2018-11-28T01:38:16.334Z,5.96
2018-11-28T01:40:46.590Z,5.96
2018-11-28T01:43:16.092Z,5.95
2018-11-28T01:45:45.349Z,6.00
2018-11-28T01:48:14.900Z,6.02
2018-11-28T01:50:44.190Z,6.04
2018-11-28T01:53:14.878Z,6.09
2018-11-28T01:55:44.462Z,6.10
2018-11-28T01:58:15.640Z,6.14
2018-11-28T02:00:45.013Z,6.18
2018-11-28T02:03:14.220Z,6.22
2018-11-28T02:05:43.379Z,6.24
2018-11-28T02:08:12.721Z,6.25
2018-11-28T02:10:43.558Z,6.26
2018-11-28T02:13:13.824Z,6.30
2018-11-28T02:15:43.807Z,6.31
2018-11-28T02:18:13.764Z,6.35
2018-11-28T02:20:43.081Z,6.38
2018-11-28T02:23:12.521Z,6.42
2018-11-28T02:25:41.946Z,6.44
2018-11-28T02:28:11.293Z,6.48
2018-11-28T02:30:40.626Z,6.51
2018-11-28T02:33:10.166Z,6.57
2018-11-28T02:35:39.572Z,6.61
2018-11-28T02:38:08.752Z,6.68
2018-11-28T02:40:38.140Z,6.71
2018-11-28T02:43:09.118Z,6.74
2018-11-28T02:45:41.291Z,6.77
2018-11-28T02:48:12.474Z,6.81
2018-11-28T02:50:43.446Z,6.83
2018-11-28T02:53:18.589Z,6.86
2018-11-28T02:55:51.946Z,6.86
2018-11-28T02:58:38.521Z,6.88
2018-11-28T03:04:20.089Z,6.91
2018-11-28T03:06:49.087Z,6.95
2018-11-28T03:09:18.070Z,7.01
2018-11-28T03:11:47.094Z,7.06
2018-11-28T03:14:16.134Z,7.10
2018-11-28T03:16:45.107Z,7.14
2018-11-28T03:19:14.112Z,7.19
2018-11-28T03:21:43.110Z,7.24
2018-11-28T03:24:12.132Z,7.30
2018-11-28T03:26:41.196Z,7.36
2018-11-28T03:29:10.240Z,7.40
2018-11-28T03:31:39.212Z,7.45
2018-11-28T03:34:08.285Z,7.49
2018-11-28T03:36:37.663Z,7.55
2018-11-28T03:39:09.540Z,7.61
2018-11-28T03:41:38.545Z,7.68
2018-11-28T03:44:08.572Z,7.73
2018-11-28T03:46:38.608Z,7.76
2018-11-28T03:49:08.759Z,7.82
2018-11-28T03:51:38.675Z,7.84
2018-11-28T03:54:08.664Z,7.87
2018-11-28T03:56:37.782Z,7.92
2018-11-28T03:59:07.128Z,7.88
2018-11-28T04:01:36.222Z,7.89
2018-11-28T04:04:05.310Z,7.91
2018-11-28T04:06:34.343Z,7.93
2018-11-28T04:09:04.965Z,7.94
2018-11-28T04:11:34.003Z,7.96
2018-11-28T04:14:03.071Z,7.98
2018-11-28T04:16:32.079Z,8.00
2018-11-28T04:19:04.478Z,8.02
2018-11-28T04:21:33.969Z,8.05
2018-11-28T04:24:03.003Z,8.07
2018-11-28T04:26:32.031Z,8.10
2018-11-28T04:29:01.040Z,8.09
2018-11-28T04:31:30.146Z,8.12
2018-11-28T04:33:59.168Z,8.12
2018-11-28T04:36:28.256Z,8.13
2018-11-28T04:38:57.362Z,8.14
2018-11-28T04:41:26.396Z,8.15
2018-11-28T04:43:55.379Z,8.15
2018-11-28T04:46:24.377Z,8.20
2018-11-28T04:48:53.459Z,8.22
2018-11-28T04:51:22.429Z,8.25
2018-11-28T04:53:51.422Z,8.29
2018-11-28T04:56:20.459Z,8.31
2018-11-28T04:58:49.658Z,8.34
2018-11-28T05:01:19.700Z,8.38
2018-11-28T05:03:49.770Z,8.42
2018-11-28T05:06:37.136Z,8.45
2018-11-28T05:09:07.168Z,8.45
2018-11-28T05:11:36.158Z,8.47
2018-11-28T05:14:05.199Z,8.50
2018-11-28T05:16:34.239Z,8.51
2018-11-28T05:19:03.222Z,8.52
2018-11-28T05:21:32.239Z,8.54
2018-11-28T05:24:01.284Z,8.52
2018-11-28T05:26:30.450Z,8.55
2018-11-28T05:28:59.480Z,8.55
2018-11-28T05:31:28.492Z,8.54
2018-11-28T05:33:57.515Z,8.57
2018-11-28T05:36:26.539Z,8.57
2018-11-28T05:38:56.587Z,8.59
2018-11-28T05:41:26.613Z,8.59
2018-11-28T05:43:56.675Z,8.60
2018-11-28T05:46:25.676Z,8.60
2018-11-28T05:48:54.725Z,8.60
2018-11-28T05:51:23.747Z,8.64
2018-11-28T05:53:52.906Z,8.67
2018-11-28T05:56:21.995Z,8.71
2018-11-28T05:58:50.990Z,8.75
2018-11-28T06:01:20.129Z,8.81
2018-11-28T06:03:49.219Z,8.85
2018-11-28T06:06:18.283Z,8.87
2018-11-28T06:08:47.417Z,8.89
2018-11-28T06:11:16.546Z,8.90
2018-11-28T06:13:45.579Z,8.90
2018-11-28T06:16:14.692Z,8.89
2018-11-28T06:18:43.667Z,8.91
2018-11-28T06:21:12.747Z,8.90
2018-11-28T06:23:41.825Z,8.88
2018-11-28T06:26:10.919Z,8.90
2018-11-28T06:28:39.980Z,8.93
2018-11-28T06:31:09.150Z,8.96
2018-11-28T06:33:38.182Z,8.98
2018-11-28T06:36:07.231Z,8.98
2018-11-28T06:38:36.289Z,8.98
2018-11-28T06:41:05.655Z,8.98
2018-11-28T06:43:34.654Z,8.98
2018-11-28T06:46:03.979Z,8.96
2018-11-28T06:48:33.035Z,8.95
2018-11-28T06:51:02.195Z,8.96
2018-11-28T06:53:31.214Z,8.97
2018-11-28T06:56:00.243Z,9.03
2018-11-28T06:58:29.257Z,9.08
2018-11-28T07:00:58.490Z,9.13
2018-11-28T07:03:27.515Z,9.20
2018-11-28T07:05:56.549Z,9.23
2018-11-28T07:08:25.525Z,9.28
2018-11-28T07:10:54.589Z,9.32
2018-11-28T07:13:23.634Z,9.37
2018-11-28T07:15:52.698Z,9.39
2018-11-28T07:18:38.966Z,9.42
2018-11-28T07:21:08.020Z,9.44
2018-11-28T07:23:37.031Z,9.47
2018-11-28T07:26:06.125Z,9.53
2018-11-28T07:28:35.138Z,9.58
2018-11-28T07:31:04.190Z,9.62
2018-11-28T07:33:33.234Z,9.65
2018-11-28T07:36:02.295Z,9.68
2018-11-28T07:38:31.309Z,9.72
2018-11-28T07:41:00.340Z,9.77
2018-11-28T07:43:29.341Z,9.83
2018-11-28T07:45:58.494Z,9.86
2018-11-28T07:48:27.528Z,9.90
2018-11-28T07:50:56.518Z,9.95
2018-11-28T07:53:25.615Z,9.97
2018-11-28T07:55:54.646Z,10.00
2018-11-28T07:58:23.715Z,10.05
2018-11-28T08:00:52.788Z,10.07
2018-11-28T08:03:21.815Z,10.10
2018-11-28T08:05:50.895Z,10.13
2018-11-28T08:08:20.079Z,10.18
2018-11-28T08:10:49.190Z,10.21
2018-11-28T08:13:18.282Z,10.25
2018-11-28T08:15:47.323Z,10.28
2018-11-28T08:18:16.410Z,10.32
2018-11-28T08:20:45.504Z,10.37
2018-11-28T08:23:14.488Z,10.40
2018-11-28T08:25:43.583Z,10.42
2018-11-28T08:28:12.554Z,10.45
2018-11-28T08:30:41.583Z,10.47
2018-11-28T08:33:10.649Z,10.48
2018-11-28T08:35:39.684Z,10.51
2018-11-28T08:38:08.739Z,10.53
2018-11-28T08:40:37.726Z,10.55
2018-11-28T08:43:07.100Z,10.61
2018-11-28T08:45:36.898Z,10.66
2018-11-28T08:48:06.128Z,10.69
2018-11-28T08:50:37.218Z,10.74
2018-11-28T08:53:07.201Z,10.82
2018-11-28T08:55:36.294Z,10.88
2018-11-28T08:58:05.291Z,10.94
2018-11-28T09:00:34.312Z,11.02
2018-11-28T09:03:03.358Z,11.09
2018-11-28T09:05:32.342Z,11.14
2018-11-28T09:08:02.161Z,11.19
2018-11-28T09:10:32.339Z,11.26
2018-11-28T09:13:04.002Z,11.32
2018-11-28T09:15:31.479Z,11.34
2018-11-28T09:18:00.416Z,11.38
2018-11-28T09:20:29.444Z,11.42
2018-11-28T09:22:58.523Z,11.47
2018-11-28T09:25:27.517Z,11.52
2018-11-28T09:27:58.891Z,11.60
2018-11-28T09:30:27.898Z,11.68
2018-11-28T09:32:56.905Z,11.78
2018-11-28T09:35:25.925Z,11.87
2018-11-28T09:37:55.063Z,11.94
2018-11-28T09:40:25.524Z,11.97
2018-11-28T09:43:01.171Z,12.01
2018-11-28T09:45:30.194Z,12.02
2018-11-28T09:47:59.206Z,12.03
2018-11-28T09:50:28.230Z,12.08
2018-11-28T09:52:57.346Z,12.09
2018-11-28T09:55:27.858Z,12.12
2018-11-28T09:57:57.894Z,12.15
2018-11-28T10:00:28.218Z,12.16
2018-11-28T10:03:00.560Z,12.18
2018-11-28T10:05:32.257Z,12.23
2018-11-28T10:08:01.472Z,12.26
2018-11-28T10:10:30.648Z,12.33
2018-11-28T10:12:59.702Z,12.37
2018-11-28T10:15:35.274Z,12.45
2018-11-28T10:17:58.616Z,12.54
2018-11-28T10:20:27.708Z,12.63
2018-11-28T10:22:56.768Z,12.70
2018-11-28T10:25:26.789Z,12.76
2018-11-28T10:28:00.509Z,12.81
2018-11-28T10:30:32.206Z,12.87
2018-11-28T10:33:01.253Z,12.93
2018-11-28T10:35:30.492Z,13.00
2018-11-28T10:37:59.554Z,13.08
2018-11-28T10:40:28.571Z,13.14
2018-11-28T10:43:00.134Z,13.18
2018-11-28T10:45:30.369Z,13.24
2018-11-28T10:47:59.847Z,13.30
2018-11-28T10:50:28.839Z,13.35
2018-11-28T10:52:58.731Z,13.40
2018-11-28T10:55:27.950Z,13.44
2018-11-28T10:57:56.988Z,13.50
2018-11-28T11:00:33.834Z,13.53
2018-11-28T11:03:08.336Z,13.59
2018-11-28T11:05:42.807Z,13.64
2018-11-28T11:08:17.738Z,13.69
2018-11-28T11:10:52.150Z,13.71
2018-11-28T11:13:26.559Z,13.65
2018-11-28T11:15:58.451Z,13.65
2018-11-28T11:18:28.423Z,13.65
2018-11-28T11:20:57.483Z,13.67
2018-11-28T11:23:26.553Z,13.69
2018-11-28T11:25:55.778Z,13.70
2018-11-28T11:28:24.831Z,13.69
2018-11-28T11:30:53.889Z,13.67
2018-11-28T11:33:22.898Z,13.65
2018-11-28T11:35:52.001Z,13.64
2018-11-28T11:38:21.059Z,13.64
2018-11-28T11:40:50.112Z,13.67
2018-11-28T11:43:19.184Z,13.70
2018-11-28T11:45:48.200Z,13.72
2018-11-28T11:48:17.835Z,13.77
2018-11-28T11:50:46.876Z,13.82
2018-11-28T11:53:15.927Z,13.88
2018-11-28T11:55:44.943Z,13.93
2018-11-28T11:58:13.963Z,13.98
2018-11-28T12:00:45.007Z,13.99
2018-11-28T12:03:15.006Z,14.00
2018-11-28T12:05:48.614Z,14.00
2018-11-28T12:08:17.666Z,14.00
2018-11-28T12:10:46.722Z,14.04
2018-11-28T12:13:15.713Z,14.09
2018-11-28T12:15:44.735Z,14.14
2018-11-28T12:18:13.744Z,14.15
2018-11-28T12:20:48.975Z,14.18
2018-11-28T12:23:18.032Z,14.22
2018-11-28T12:25:47.095Z,14.22
2018-11-28T12:28:16.169Z,14.22
2018-11-28T12:30:45.232Z,14.22
2018-11-28T12:33:14.211Z,14.19
2018-11-28T12:35:43.232Z,14.15
2018-11-28T12:38:12.295Z,14.14
2018-11-28T12:40:42.002Z,14.12
2018-11-28T12:43:11.390Z,14.10
2018-11-28T12:45:43.911Z,14.11
2018-11-28T12:48:13.004Z,14.11
2018-11-28T12:50:42.679Z,14.07
2018-11-28T12:53:13.271Z,14.05
2018-11-28T12:55:42.398Z,14.00
2018-11-28T12:58:14.462Z,13.93
2018-11-28T13:00:43.571Z,13.91
2018-11-28T13:03:14.682Z,13.89
2018-11-28T13:05:43.786Z,13.87
2018-11-28T13:08:12.868Z,13.84
2018-11-28T13:10:42.681Z,13.83
2018-11-28T13:13:12.550Z,13.81
2018-11-28T13:15:41.558Z,13.78
2018-11-28T13:18:11.500Z,13.78
2018-11-28T13:20:42.020Z,13.76
2018-11-28T13:23:13.239Z,13.75
2018-11-28T13:25:42.342Z,13.72
2018-11-28T13:28:11.428Z,13.68
2018-11-28T13:30:40.684Z,13.65
2018-11-28T13:33:09.947Z,13.59
2018-11-28T13:35:39.002Z,13.56
2018-11-28T13:38:11.899Z,13.54
2018-11-28T13:40:41.532Z,13.53
2018-11-28T13:43:10.622Z,13.51
2018-11-28T13:45:46.198Z,13.53
2018-11-28T13:48:16.343Z,13.54
2018-11-28T13:50:45.452Z,13.56
2018-11-28T13:53:16.511Z,13.58
2018-11-28T13:56:57.111Z,13.64
2018-11-28T13:58:24.078Z,13.68
2018-11-28T14:00:53.129Z,13.72
2018-11-28T14:03:22.146Z,13.75
2018-11-28T14:05:51.178Z,13.72
2018-11-28T14:08:20.168Z,13.68
2018-11-28T14:10:49.214Z,13.60
2018-11-28T14:13:18.334Z,13.53
2018-11-28T14:15:47.289Z,13.49
2018-11-28T14:18:18.476Z,13.47
2018-11-28T14:20:47.475Z,13.43
2018-11-28T14:23:16.457Z,13.38
2018-11-28T14:25:45.535Z,13.36
2018-11-28T14:28:14.631Z,13.31
2018-11-28T14:30:44.984Z,13.28
2018-11-28T14:33:13.972Z,13.22
2018-11-28T14:35:43.222Z,13.23
2018-11-28T14:38:12.311Z,13.21
2018-11-28T14:40:41.328Z,13.20
2018-11-28T14:43:10.345Z,13.20
2018-11-28T14:45:39.363Z,13.19
2018-11-28T14:48:08.351Z,13.16
2018-11-28T14:50:37.462Z,13.14
2018-11-28T14:53:06.538Z,13.05
2018-11-28T14:55:38.478Z,12.97
2018-11-28T14:58:09.801Z,12.90
2018-11-28T15:00:38.900Z,12.81
2018-11-28T15:03:12.786Z,12.75
2018-11-28T15:06:54.844Z,12.67
2018-11-28T15:09:31.264Z,12.41
2018-11-28T15:12:00.482Z,12.33
2018-11-28T15:14:29.531Z,12.27
2018-11-28T15:16:58.571Z,12.25
2018-11-28T15:19:27.591Z,12.23
2018-11-28T15:21:56.610Z,12.19
2018-11-28T15:24:26.330Z,12.16
2018-11-28T15:26:55.394Z,12.12
2018-11-28T15:29:24.399Z,12.08
2018-11-28T15:31:53.414Z,12.04
2018-11-28T15:34:22.415Z,12.03
2018-11-28T15:36:51.468Z,11.99
2018-11-28T15:39:20.508Z,11.97
2018-11-28T15:41:49.542Z,11.94
2018-11-28T15:44:18.557Z,11.92
2018-11-28T15:46:47.642Z,11.88
2018-11-28T15:49:16.798Z,11.86
2018-11-28T15:51:45.764Z,11.83
2018-11-28T15:54:14.862Z,11.82
2018-11-28T15:56:44.104Z,11.80
2018-11-28T15:59:13.116Z,11.80
2018-11-28T16:01:42.133Z,11.81
2018-11-28T16:04:11.103Z,11.79
2018-11-28T16:06:40.129Z,11.79
2018-11-28T16:09:13.792Z,11.79
2018-11-28T16:11:42.915Z,11.77
2018-11-28T16:14:11.921Z,11.75
2018-11-28T16:16:40.935Z,11.74
2018-11-28T16:19:10.056Z,11.73
2018-11-28T16:21:39.070Z,11.72
2018-11-28T16:24:08.075Z,11.69
2018-11-28T16:26:37.160Z,11.72
2018-11-28T16:29:06.502Z,11.70
2018-11-28T16:31:35.550Z,11.69
2018-11-28T16:34:04.578Z,11.70
2018-11-28T16:36:33.667Z,11.70
2018-11-28T16:39:02.728Z,11.69
2018-11-28T16:41:32.188Z,11.67
2018-11-28T16:44:02.175Z,11.66
2018-11-28T16:46:32.155Z,11.66
2018-11-28T16:49:02.475Z,11.65
2018-11-28T16:51:31.507Z,11.68
2018-11-28T16:54:00.533Z,11.70
2018-11-28T16:56:29.531Z,11.73
2018-11-28T16:58:58.561Z,11.76
2018-11-28T17:01:27.567Z,11.77
2018-11-28T17:03:56.552Z,11.80
2018-11-28T17:06:25.587Z,11.81
2018-11-28T17:08:55.494Z,11.81
2018-11-28T17:11:24.605Z,11.83
2018-11-28T17:13:53.613Z,11.85
2018-11-28T17:16:22.610Z,11.88
2018-11-28T17:18:51.659Z,11.88
2018-11-28T17:21:20.789Z,11.91
2018-11-28T17:23:49.897Z,11.92
2018-11-28T17:26:19.079Z,11.91
2018-11-28T17:28:48.272Z,11.91
2018-11-28T17:31:17.458Z,11.94
2018-11-28T17:33:46.442Z,11.93
2018-11-28T17:36:15.585Z,11.94
2018-11-28T17:38:44.678Z,11.98
2018-11-28T17:41:13.750Z,11.99
2018-11-28T17:43:42.767Z,11.97
2018-11-28T17:46:11.804Z,11.96
2018-11-28T17:48:40.875Z,11.97
2018-11-28T17:51:09.923Z,11.96
2018-11-28T17:53:39.024Z,11.93
2018-11-28T17:56:08.094Z,11.96
2018-11-28T17:58:37.254Z,11.95
2018-11-28T18:01:06.600Z,11.94
2018-11-28T18:03:35.730Z,11.93
2018-11-28T18:06:05.805Z,11.91
2018-11-28T18:08:34.917Z,11.88
2018-11-28T18:11:14.738Z,11.84
2018-11-28T18:13:45.262Z,11.82
2018-11-28T18:16:14.937Z,11.81
2018-11-28T18:18:45.251Z,11.82
2018-11-28T18:21:15.152Z,11.81
2018-11-28T18:23:44.191Z,11.81
2018-11-28T18:26:15.060Z,11.79
2018-11-28T18:28:44.196Z,11.77
2018-11-28T18:31:13.311Z,11.74
2018-11-28T18:33:42.455Z,11.70
2018-11-28T18:36:11.468Z,11.67
2018-11-28T18:38:40.580Z,11.63
2018-11-28T18:41:09.687Z,11.58
2018-11-28T18:43:38.758Z,11.56
2018-11-28T18:46:08.375Z,11.53
2018-11-28T18:48:37.382Z,11.49
2018-11-28T18:51:06.852Z,11.46
2018-11-28T18:53:35.958Z,11.44
2018-11-28T18:56:05.010Z,11.42
2018-11-28T18:58:34.054Z,11.39
2018-11-28T19:01:03.116Z,11.37
2018-11-28T19:03:32.284Z,11.35
2018-11-28T19:06:01.389Z,11.35
2018-11-28T19:08:30.540Z,11.34
2018-11-28T19:11:00.562Z,11.33
2018-11-28T19:13:29.074Z,11.32
2018-11-28T19:15:58.076Z,11.33
2018-11-28T19:18:27.754Z,11.33
2018-11-28T19:20:56.299Z,11.34
2018-11-28T19:23:25.343Z,11.37
2018-11-28T19:25:54.454Z,11.39
2018-11-28T19:28:23.547Z,11.41
2018-11-28T19:30:52.591Z,11.44
2018-11-28T19:33:21.659Z,11.47
2018-11-28T19:35:50.679Z,11.52
2018-11-28T19:38:19.682Z,11.56
2018-11-28T19:40:52.444Z,11.59
2018-11-28T19:43:21.603Z,11.64
2018-11-28T19:45:50.566Z,11.70
2018-11-28T19:48:19.580Z,11.75
2018-11-28T19:50:48.645Z,11.81
2018-11-28T19:53:17.987Z,11.85
2018-11-28T19:55:47.781Z,11.89
2018-11-28T19:58:16.782Z,11.94
2018-11-28T20:00:47.028Z,11.97
2018-11-28T20:03:16.164Z,12.00
2018-11-28T20:05:45.187Z,12.01
2018-11-28T20:08:14.448Z,12.02
2018-11-28T20:10:43.531Z,12.03
2018-11-28T20:13:12.586Z,12.04
2018-11-28T20:15:44.490Z,12.06
2018-11-28T20:18:13.720Z,12.10
2018-11-28T20:20:44.278Z,12.12
2018-11-28T20:23:13.899Z,12.13
2018-11-28T20:25:42.985Z,12.16
2018-11-28T20:28:12.132Z,12.17
2018-11-28T20:30:45.046Z,12.18
2018-11-28T20:33:15.724Z,12.19
2018-11-28T20:35:46.783Z,12.20
2018-11-28T20:38:20.295Z,12.18
2018-11-28T20:40:50.045Z,12.19
2018-11-28T20:43:19.119Z,12.20
2018-11-28T20:45:48.310Z,12.22
2018-11-28T20:48:18.030Z,12.22
2018-11-28T20:50:48.431Z,12.25
2018-11-28T20:53:19.752Z,12.26
2018-11-28T20:55:49.311Z,12.30
2018-11-28T20:58:19.395Z,12.32
2018-11-28T21:00:49.465Z,12.37
2018-11-28T21:03:18.523Z,12.39
2018-11-28T21:05:47.586Z,12.41
2018-11-28T21:08:16.602Z,12.42
2018-11-28T21:10:45.773Z,12.41
2018-11-28T21:13:15.250Z,12.44
2018-11-28T21:15:45.771Z,12.46
2018-11-28T21:18:15.016Z,12.47
2018-11-28T21:20:45.889Z,12.49
2018-11-28T21:23:16.928Z,12.52
2018-11-28T21:25:46.055Z,12.55
2018-11-28T21:28:15.159Z,12.56
2018-11-28T21:30:44.256Z,12.58
2018-11-28T21:33:14.938Z,12.60
2018-11-28T21:35:49.431Z,12.60
2018-11-28T21:38:18.506Z,12.59
2018-11-28T21:40:47.582Z,12.61
2018-11-28T21:43:16.681Z,12.64
2018-11-28T21:45:45.992Z,12.67
2018-11-28T21:48:15.053Z,12.73
2018-11-28T21:50:44.062Z,12.79
2018-11-28T21:53:13.114Z,12.82
2018-11-28T21:55:42.165Z,12.85
2018-11-28T21:58:11.218Z,12.88
2018-11-28T22:00:40.268Z,12.90
2018-11-28T22:03:09.270Z,12.92
2018-11-28T22:05:38.318Z,12.97
2018-11-28T22:08:07.339Z,12.99
2018-11-28T22:10:36.374Z,13.00
2018-11-28T22:13:05.442Z,13.02
2018-11-28T22:15:34.495Z,13.05
2018-11-28T22:18:03.498Z,13.07
2018-11-28T22:20:32.544Z,13.10
2018-11-28T22:23:01.970Z,13.14
2018-11-28T22:25:31.015Z,13.19
2018-11-28T22:28:00.066Z,13.22
2018-11-28T22:30:29.680Z,13.25
2018-11-28T22:32:59.158Z,13.26
2018-11-28T22:35:28.186Z,13.30
2018-11-28T22:37:57.307Z,13.31
2018-11-28T22:40:30.846Z,13.33
2018-11-28T22:42:59.869Z,13.35
2018-11-28T22:45:32.230Z,13.37
2018-11-28T22:48:01.305Z,13.37
2018-11-28T22:50:30.360Z,13.39
2018-11-28T22:52:59.446Z,13.41
2018-11-28T22:55:28.497Z,13.41
2018-11-28T22:57:57.518Z,13.41
2018-11-28T23:00:33.290Z,13.43
2018-11-28T23:03:06.607Z,13.43
2018-11-28T23:05:47.959Z,13.44
2018-11-28T23:08:19.003Z,13.42
2018-11-28T23:10:48.613Z,13.45
2018-11-28T23:13:22.958Z,13.44
2018-11-28T23:15:51.968Z,13.46
2018-11-28T23:18:21.050Z,13.50
2018-11-28T23:20:50.087Z,13.51
2018-11-28T23:23:19.085Z,13.56
2018-11-28T23:25:48.059Z,13.56
2018-11-28T23:28:17.087Z,13.59
2018-11-28T23:30:46.122Z,13.58
2018-11-28T23:33:16.189Z,13.56
2018-11-28T23:35:44.134Z,13.54
2018-11-28T23:38:13.174Z,13.53
2018-11-28T23:40:42.214Z,13.52
2018-11-28T23:43:11.254Z,13.52
2018-11-28T23:45:40.262Z,13.54
2018-11-28T23:48:09.341Z,13.57
2018-11-28T23:50:38.355Z,13.58
2018-11-28T23:53:07.378Z,13.59
2018-11-28T23:55:36.415Z,13.63
2018-11-28T23:58:05.552Z,13.65
